Aérodrome :
LOGIN :

S'inscrire | Disclaimer

   EN    FR    IT 

 










Légende :    VFR   VFR Marginal   IFR   IFR Intensif   IFR Très Intensif
Visi : 
Plafond : 
>= 8 km
>= 3000ft
5 à 8 km
1000 à 3000 ft
1500m à 5 km
500 à 1000 ft
800 à 1500m
200 à 500 ft
< 800m
< 200 ft
Symboles :   Orages  Brouillard  Fortes neiges  Fortes précipitations  Vent > 20 kt
SIGMETs :   Divers  Orages  Givrage  Turbulence  Onde Orograph.  Cendres Volcan.







- Altitude de l'aérodrome : 1213 ft
- Code IATA : SCQ


LEST - Santiago de Compostela

DERNIER METAR :
  • 261230Z VRB01KT CAVOK 25/14 Q1019 NOSIG

METARs EXPIRÉS :
  • 261200Z 30004KT 240V010 CAVOK 25/14 Q1020 NOSIG
  • 261130Z VRB03KT CAVOK 24/15 Q1020 NOSIG
  • 261100Z VRB01KT CAVOK 22/14 Q1020 NOSIG
  • 261030Z VRB01KT CAVOK 21/15 Q1020 NOSIG
  • 261000Z 01003KT 320V060 8000 FEW011 19/14 Q1020 NOSIG
  • 260930Z 36005KT 320V040 8000 FEW011 18/14 Q1020 NOSIG

TAF TAF LEST
Valide du 26 à 12h jusqu'au 27 à 12h UTC


261100Z 2612/2712 34009KT CAVOK TX28/2615Z TN14/2706Z
TEMPO 2612/2616 28010KT
TEMPO 2621/2710 BKN010
TEMPO 2621/2708 1500 BCFG BKN005
PROB40
TEMPO 2700/2708 0600 FG BKN002
Pas de NOTAMs connus pour ce terrain.



MET'MAP, la Météo Aéronautique d'un coup d'oeil ! - Copyright ORBIFLY Décembre 2007 - Disclaimer

ORBIFLY MET'MAP TEAM :

Programmation & Développement : Alexandra Zaïnal
Conception & Développement : Baudouin d'Aumeries
Co-Programmation & Développement : Marc-Olivier Méhu
Soutien technique & logistique : Manuel Goepfert

Contact : metmap@orbifly.com




SOURCES & CREDITS :

   NOAA